Accueil
METAR-TAF:

METAR-TAF

Aéroports :

Gênes, Italie

Aéroport de Gênes-Christophe Colomb

latitude: 44-25N, longitude: 008-51E, altitude: 2 m

Observation

Le bulletin a été fait il y a 40 minutes, à 22:20 UTC
Vent 4 kt de nord-est, variant entre nord et est
Température 10°C
Humidité 71%
Pression 1004 hPa
Visibilité 10 km ou plus
Nuages fragmentés à une hauteur de 2600 ft

METAR: LIMJ 202220Z 05004KT 010V080 9999 BKN026 10/05 Q1004

Heure: 00:00 (23:00 UTC)

Prévision

Le bulletin a été fait il y a 6 heures et 0 minutes, à 17:00 UTC
Prévision valable du 20 à 18 UTC au 21 à 18 UTC
Vent 8 kt de nord
Visibilité 10 km ou plus
Nuages épars à une hauteur de 7000 ft

TAF: LIMJ 201700Z 2018/2118 01008KT 9999 SCT070

Observations et prévisions météorologiques de plus de 4000 aéroports (messages METAR et TAF).

Les stations disponibles sont représentées par des disques jaunes et rouges sur la carte.

Passer la souris dessus pour voir le nom de la station.

Cliquer dessus pour voir les observations et prévisions météorologiques.

Pour changer de carte: cliquez sur les boutons verts avec une croix noire pour zoomer, sur le bouton vert avec un tiret pour effectuer un zoom arrière, ou sur les flèches vertes pour les cartes adjacentes.


METAR-TAF: